sensor_id;sensor_type;location;lat;lon;timestamp;P1;durP1;ratioP1;P2;durP2;ratioP2
12145;SDS011;6136;47.032;15.398;2023-02-03T00:00:06;11.07;;;6.23;;
12145;SDS011;6136;47.032;15.398;2023-02-03T00:02:38;9.37;;;6.47;;
12145;SDS011;6136;47.032;15.398;2023-02-03T00:05:06;8.00;;;5.50;;
12145;SDS011;6136;47.032;15.398;2023-02-03T00:07:35;8.87;;;6.43;;
12145;SDS011;6136;47.032;15.398;2023-02-03T00:10:06;9.23;;;6.23;;
12145;SDS011;6136;47.032;15.398;2023-02-03T00:12:36;10.73;;;7.03;;
12145;SDS011;6136;47.032;15.398;2023-02-03T00:15:07;10.50;;;7.03;;
12145;SDS011;6136;47.032;15.398;2023-02-03T00:17:36;13.80;;;7.77;;
12145;SDS011;6136;47.032;15.398;2023-02-03T00:20:04;12.83;;;7.43;;
12145;SDS011;6136;47.032;15.398;2023-02-03T00:22:33;13.67;;;7.33;;
12145;SDS011;6136;47.032;15.398;2023-02-03T00:25:01;13.03;;;7.30;;
12145;SDS011;6136;47.032;15.398;2023-02-03T00:27:30;8.53;;;6.30;;
12145;SDS011;6136;47.032;15.398;2023-02-03T00:30:00;11.43;;;6.93;;
12145;SDS011;6136;47.032;15.398;2023-02-03T00:32:28;7.80;;;5.73;;
12145;SDS011;6136;47.032;15.398;2023-02-03T00:34:57;9.10;;;6.27;;
12145;SDS011;6136;47.032;15.398;2023-02-03T00:37:25;7.00;;;5.43;;
12145;SDS011;6136;47.032;15.398;2023-02-03T00:39:53;8.10;;;6.03;;
12145;SDS011;6136;47.032;15.398;2023-02-03T00:42:21;7.90;;;6.13;;
12145;SDS011;6136;47.032;15.398;2023-02-03T00:44:49;8.87;;;6.10;;
12145;SDS011;6136;47.032;15.398;2023-02-03T00:47:19;7.97;;;5.70;;
12145;SDS011;6136;47.032;15.398;2023-02-03T00:49:47;8.07;;;5.77;;
12145;SDS011;6136;47.032;15.398;2023-02-03T00:52:15;8.07;;;5.73;;
12145;SDS011;6136;47.032;15.398;2023-02-03T00:54:44;7.37;;;4.60;;
12145;SDS011;6136;47.032;15.398;2023-02-03T00:57:12;5.97;;;4.63;;
12145;SDS011;6136;47.032;15.398;2023-02-03T00:59:40;8.30;;;5.27;;
12145;SDS011;6136;47.032;15.398;2023-02-03T01:02:08;5.50;;;4.83;;
12145;SDS011;6136;47.032;15.398;2023-02-03T01:04:38;8.33;;;5.87;;
12145;SDS011;6136;47.032;15.398;2023-02-03T01:07:06;7.43;;;5.87;;
12145;SDS011;6136;47.032;15.398;2023-02-03T01:09:34;6.13;;;5.20;;
12145;SDS011;6136;47.032;15.398;2023-02-03T01:12:03;8.07;;;6.23;;
12145;SDS011;6136;47.032;15.398;2023-02-03T01:14:32;9.50;;;6.93;;
12145;SDS011;6136;47.032;15.398;2023-02-03T01:17:03;9.93;;;7.00;;
12145;SDS011;6136;47.032;15.398;2023-02-03T01:19:31;9.57;;;6.87;;
12145;SDS011;6136;47.032;15.398;2023-02-03T01:22:01;7.70;;;6.10;;
12145;SDS011;6136;47.032;15.398;2023-02-03T01:24:29;9.33;;;6.73;;
12145;SDS011;6136;47.032;15.398;2023-02-03T01:26:58;10.73;;;7.50;;
12145;SDS011;6136;47.032;15.398;2023-02-03T01:29:26;9.77;;;7.37;;
12145;SDS011;6136;47.032;15.398;2023-02-03T01:31:54;9.57;;;6.80;;
12145;SDS011;6136;47.032;15.398;2023-02-03T01:34:23;9.63;;;6.97;;
12145;SDS011;6136;47.032;15.398;2023-02-03T01:36:51;9.10;;;6.83;;
12145;SDS011;6136;47.032;15.398;2023-02-03T01:39:21;9.23;;;6.87;;
12145;SDS011;6136;47.032;15.398;2023-02-03T01:41:53;9.20;;;6.63;;
12145;SDS011;6136;47.032;15.398;2023-02-03T01:44:37;8.00;;;6.13;;
12145;SDS011;6136;47.032;15.398;2023-02-03T01:47:15;9.03;;;6.17;;
12145;SDS011;6136;47.032;15.398;2023-02-03T01:49:49;9.53;;;6.70;;
12145;SDS011;6136;47.032;15.398;2023-02-03T01:52:23;9.17;;;7.13;;
12145;SDS011;6136;47.032;15.398;2023-02-03T01:54:56;9.67;;;7.10;;
12145;SDS011;6136;47.032;15.398;2023-02-03T01:57:28;9.80;;;7.70;;
12145;SDS011;6136;47.032;15.398;2023-02-03T02:00:00;9.37;;;7.07;;
12145;SDS011;6136;47.032;15.398;2023-02-03T02:02:38;8.97;;;7.00;;
12145;SDS011;6136;47.032;15.398;2023-02-03T02:05:11;9.40;;;6.93;;
12145;SDS011;6136;47.032;15.398;2023-02-03T02:07:43;10.40;;;7.23;;
12145;SDS011;6136;47.032;15.398;2023-02-03T02:10:13;10.00;;;7.20;;
12145;SDS011;6136;47.032;15.398;2023-02-03T02:12:41;9.40;;;6.20;;
12145;SDS011;6136;47.032;15.398;2023-02-03T02:15:11;10.10;;;6.80;;
12145;SDS011;6136;47.032;15.398;2023-02-03T02:17:50;10.03;;;7.83;;
12145;SDS011;6136;47.032;15.398;2023-02-03T02:20:32;9.07;;;7.20;;
12145;SDS011;6136;47.032;15.398;2023-02-03T02:23:29;9.67;;;7.47;;
12145;SDS011;6136;47.032;15.398;2023-02-03T02:26:18;10.90;;;7.67;;
12145;SDS011;6136;47.032;15.398;2023-02-03T02:32:22;11.40;;;7.73;;
12145;SDS011;6136;47.032;15.398;2023-02-03T02:35:02;11.93;;;8.27;;
12145;SDS011;6136;47.032;15.398;2023-02-03T02:37:41;11.93;;;9.00;;
12145;SDS011;6136;47.032;15.398;2023-02-03T02:40:18;13.00;;;8.37;;
12145;SDS011;6136;47.032;15.398;2023-02-03T02:42:57;14.07;;;7.93;;
12145;SDS011;6136;47.032;15.398;2023-02-03T02:45:43;10.87;;;7.80;;
12145;SDS011;6136;47.032;15.398;2023-02-03T02:48:19;11.77;;;8.17;;
12145;SDS011;6136;47.032;15.398;2023-02-03T02:50:51;13.30;;;8.00;;
12145;SDS011;6136;47.032;15.398;2023-02-03T02:53:23;11.67;;;8.30;;
12145;SDS011;6136;47.032;15.398;2023-02-03T02:55:54;12.37;;;8.27;;
12145;SDS011;6136;47.032;15.398;2023-02-03T02:58:25;11.37;;;7.87;;
12145;SDS011;6136;47.032;15.398;2023-02-03T03:00:56;12.83;;;8.00;;
12145;SDS011;6136;47.032;15.398;2023-02-03T03:03:26;10.57;;;7.80;;
12145;SDS011;6136;47.032;15.398;2023-02-03T03:05:55;12.47;;;8.37;;
12145;SDS011;6136;47.032;15.398;2023-02-03T03:08:31;11.60;;;8.17;;
12145;SDS011;6136;47.032;15.398;2023-02-03T03:11:04;11.57;;;8.40;;
12145;SDS011;6136;47.032;15.398;2023-02-03T03:13:34;13.10;;;7.60;;
12145;SDS011;6136;47.032;15.398;2023-02-03T03:16:08;11.03;;;7.63;;
12145;SDS011;6136;47.032;15.398;2023-02-03T03:18:40;13.33;;;8.40;;
12145;SDS011;6136;47.032;15.398;2023-02-03T03:21:12;11.27;;;7.77;;
12145;SDS011;6136;47.032;15.398;2023-02-03T03:23:43;12.23;;;8.37;;
12145;SDS011;6136;47.032;15.398;2023-02-03T03:26:17;12.07;;;8.33;;
12145;SDS011;6136;47.032;15.398;2023-02-03T03:28:50;11.97;;;7.90;;
12145;SDS011;6136;47.032;15.398;2023-02-03T03:31:21;11.17;;;7.80;;
12145;SDS011;6136;47.032;15.398;2023-02-03T03:33:51;11.20;;;8.03;;
12145;SDS011;6136;47.032;15.398;2023-02-03T03:36:21;10.60;;;7.97;;
12145;SDS011;6136;47.032;15.398;2023-02-03T03:38:54;10.93;;;7.73;;
12145;SDS011;6136;47.032;15.398;2023-02-03T03:41:32;12.60;;;7.93;;
12145;SDS011;6136;47.032;15.398;2023-02-03T03:44:08;12.63;;;8.13;;
12145;SDS011;6136;47.032;15.398;2023-02-03T03:46:41;17.83;;;7.83;;
12145;SDS011;6136;47.032;15.398;2023-02-03T03:49:16;12.90;;;8.13;;
12145;SDS011;6136;47.032;15.398;2023-02-03T03:51:47;14.67;;;8.70;;
12145;SDS011;6136;47.032;15.398;2023-02-03T03:54:18;11.27;;;8.03;;
12145;SDS011;6136;47.032;15.398;2023-02-03T03:56:50;11.67;;;8.33;;
12145;SDS011;6136;47.032;15.398;2023-02-03T03:59:24;12.77;;;8.70;;
12145;SDS011;6136;47.032;15.398;2023-02-03T04:01:55;14.63;;;9.00;;
12145;SDS011;6136;47.032;15.398;2023-02-03T04:04:32;13.43;;;8.77;;
12145;SDS011;6136;47.032;15.398;2023-02-03T04:07:03;13.87;;;8.63;;
12145;SDS011;6136;47.032;15.398;2023-02-03T04:09:31;15.10;;;8.90;;
12145;SDS011;6136;47.032;15.398;2023-02-03T04:12:02;15.73;;;8.90;;
12145;SDS011;6136;47.032;15.398;2023-02-03T04:14:32;12.73;;;8.77;;
12145;SDS011;6136;47.032;15.398;2023-02-03T04:17:04;13.67;;;9.07;;
12145;SDS011;6136;47.032;15.398;2023-02-03T04:19:34;12.07;;;8.77;;
12145;SDS011;6136;47.032;15.398;2023-02-03T04:22:02;10.10;;;7.60;;
12145;SDS011;6136;47.032;15.398;2023-02-03T04:24:30;13.20;;;8.53;;
12145;SDS011;6136;47.032;15.398;2023-02-03T04:26:58;12.23;;;9.03;;
12145;SDS011;6136;47.032;15.398;2023-02-03T04:29:26;13.60;;;9.17;;
12145;SDS011;6136;47.032;15.398;2023-02-03T04:31:54;13.43;;;9.10;;
12145;SDS011;6136;47.032;15.398;2023-02-03T04:34:22;14.73;;;8.87;;
12145;SDS011;6136;47.032;15.398;2023-02-03T04:36:52;12.03;;;7.83;;
12145;SDS011;6136;47.032;15.398;2023-02-03T04:39:20;13.17;;;8.17;;
12145;SDS011;6136;47.032;15.398;2023-02-03T04:41:48;13.53;;;8.60;;
12145;SDS011;6136;47.032;15.398;2023-02-03T04:44:16;14.13;;;8.97;;
12145;SDS011;6136;47.032;15.398;2023-02-03T04:46:44;15.13;;;9.27;;
12145;SDS011;6136;47.032;15.398;2023-02-03T04:49:12;12.90;;;8.53;;
12145;SDS011;6136;47.032;15.398;2023-02-03T04:51:40;11.00;;;7.83;;
12145;SDS011;6136;47.032;15.398;2023-02-03T04:54:10;13.40;;;8.17;;
12145;SDS011;6136;47.032;15.398;2023-02-03T04:56:39;11.33;;;8.10;;
12145;SDS011;6136;47.032;15.398;2023-02-03T04:59:07;13.23;;;8.73;;
12145;SDS011;6136;47.032;15.398;2023-02-03T05:01:35;12.23;;;8.57;;
12145;SDS011;6136;47.032;15.398;2023-02-03T05:04:03;14.13;;;9.30;;
12145;SDS011;6136;47.032;15.398;2023-02-03T05:06:32;17.30;;;9.37;;
12145;SDS011;6136;47.032;15.398;2023-02-03T05:09:00;15.83;;;9.30;;
12145;SDS011;6136;47.032;15.398;2023-02-03T05:11:30;13.07;;;8.77;;
12145;SDS011;6136;47.032;15.398;2023-02-03T05:13:58;19.17;;;10.30;;
12145;SDS011;6136;47.032;15.398;2023-02-03T05:16:26;18.50;;;11.10;;
12145;SDS011;6136;47.032;15.398;2023-02-03T05:18:54;21.73;;;12.97;;
12145;SDS011;6136;47.032;15.398;2023-02-03T05:21:23;21.47;;;11.70;;
12145;SDS011;6136;47.032;15.398;2023-02-03T05:23:51;22.37;;;12.03;;
12145;SDS011;6136;47.032;15.398;2023-02-03T05:26:19;26.30;;;13.20;;
12145;SDS011;6136;47.032;15.398;2023-02-03T05:28:48;23.37;;;12.17;;
12145;SDS011;6136;47.032;15.398;2023-02-03T05:31:18;23.90;;;12.50;;
12145;SDS011;6136;47.032;15.398;2023-02-03T05:33:47;23.53;;;12.93;;
12145;SDS011;6136;47.032;15.398;2023-02-03T05:36:15;22.20;;;12.37;;
12145;SDS011;6136;47.032;15.398;2023-02-03T05:38:43;25.40;;;14.03;;
12145;SDS011;6136;47.032;15.398;2023-02-03T05:41:11;24.20;;;13.00;;
12145;SDS011;6136;47.032;15.398;2023-02-03T05:43:58;22.17;;;13.20;;
12145;SDS011;6136;47.032;15.398;2023-02-03T05:46:27;23.83;;;11.70;;
12145;SDS011;6136;47.032;15.398;2023-02-03T05:48:55;24.87;;;12.07;;
12145;SDS011;6136;47.032;15.398;2023-02-03T05:51:23;24.33;;;11.63;;
12145;SDS011;6136;47.032;15.398;2023-02-03T05:53:51;18.37;;;11.07;;
12145;SDS011;6136;47.032;15.398;2023-02-03T05:56:19;20.83;;;11.70;;
12145;SDS011;6136;47.032;15.398;2023-02-03T05:58:47;20.80;;;12.00;;
12145;SDS011;6136;47.032;15.398;2023-02-03T06:01:20;18.27;;;11.67;;
12145;SDS011;6136;47.032;15.398;2023-02-03T06:03:48;28.10;;;12.27;;
12145;SDS011;6136;47.032;15.398;2023-02-03T06:06:16;20.33;;;11.40;;
12145;SDS011;6136;47.032;15.398;2023-02-03T06:08:44;21.47;;;11.70;;
12145;SDS011;6136;47.032;15.398;2023-02-03T06:11:13;17.87;;;11.80;;
12145;SDS011;6136;47.032;15.398;2023-02-03T06:13:41;19.23;;;11.50;;
12145;SDS011;6136;47.032;15.398;2023-02-03T06:16:09;19.07;;;11.33;;
12145;SDS011;6136;47.032;15.398;2023-02-03T06:18:38;18.20;;;10.10;;
12145;SDS011;6136;47.032;15.398;2023-02-03T06:21:07;17.23;;;10.90;;
12145;SDS011;6136;47.032;15.398;2023-02-03T06:23:35;18.73;;;10.73;;
12145;SDS011;6136;47.032;15.398;2023-02-03T06:26:03;18.30;;;11.30;;
12145;SDS011;6136;47.032;15.398;2023-02-03T06:28:31;17.27;;;11.33;;
12145;SDS011;6136;47.032;15.398;2023-02-03T06:30:59;17.13;;;11.27;;
12145;SDS011;6136;47.032;15.398;2023-02-03T06:33:28;15.47;;;10.73;;
12145;SDS011;6136;47.032;15.398;2023-02-03T06:35:57;19.10;;;11.43;;
12145;SDS011;6136;47.032;15.398;2023-02-03T06:38:26;14.03;;;9.50;;
12145;SDS011;6136;47.032;15.398;2023-02-03T06:40:54;16.20;;;10.10;;
12145;SDS011;6136;47.032;15.398;2023-02-03T06:43:22;16.20;;;10.60;;
12145;SDS011;6136;47.032;15.398;2023-02-03T06:45:50;15.57;;;9.00;;
12145;SDS011;6136;47.032;15.398;2023-02-03T06:48:18;17.10;;;10.07;;
12145;SDS011;6136;47.032;15.398;2023-02-03T06:50:46;13.17;;;8.80;;
12145;SDS011;6136;47.032;15.398;2023-02-03T06:53:16;14.67;;;9.63;;
12145;SDS011;6136;47.032;15.398;2023-02-03T06:55:44;13.37;;;8.70;;
12145;SDS011;6136;47.032;15.398;2023-02-03T06:58:13;16.77;;;9.87;;
12145;SDS011;6136;47.032;15.398;2023-02-03T07:00:41;15.13;;;9.20;;
12145;SDS011;6136;47.032;15.398;2023-02-03T07:03:09;11.00;;;8.80;;
12145;SDS011;6136;47.032;15.398;2023-02-03T07:05:37;14.70;;;9.27;;
12145;SDS011;6136;47.032;15.398;2023-02-03T07:08:06;11.93;;;8.53;;
12145;SDS011;6136;47.032;15.398;2023-02-03T07:10:35;15.00;;;8.60;;
12145;SDS011;6136;47.032;15.398;2023-02-03T07:13:04;15.50;;;10.70;;
12145;SDS011;6136;47.032;15.398;2023-02-03T07:15:33;21.27;;;13.03;;
12145;SDS011;6136;47.032;15.398;2023-02-03T07:18:01;20.20;;;13.40;;
12145;SDS011;6136;47.032;15.398;2023-02-03T07:20:29;17.50;;;10.83;;
12145;SDS011;6136;47.032;15.398;2023-02-03T07:22:58;19.73;;;10.87;;
12145;SDS011;6136;47.032;15.398;2023-02-03T07:25:26;15.87;;;10.40;;
12145;SDS011;6136;47.032;15.398;2023-02-03T07:27:55;14.63;;;8.10;;
12145;SDS011;6136;47.032;15.398;2023-02-03T07:30:24;13.37;;;8.70;;
12145;SDS011;6136;47.032;15.398;2023-02-03T07:32:52;14.10;;;10.40;;
12145;SDS011;6136;47.032;15.398;2023-02-03T07:35:21;12.77;;;8.70;;
12145;SDS011;6136;47.032;15.398;2023-02-03T07:37:49;9.90;;;8.37;;
12145;SDS011;6136;47.032;15.398;2023-02-03T07:40:17;16.20;;;9.37;;
12145;SDS011;6136;47.032;15.398;2023-02-03T07:42:46;23.37;;;12.40;;
12145;SDS011;6136;47.032;15.398;2023-02-03T07:45:17;23.97;;;12.47;;
12145;SDS011;6136;47.032;15.398;2023-02-03T07:47:47;18.47;;;11.67;;
12145;SDS011;6136;47.032;15.398;2023-02-03T07:50:15;17.73;;;11.20;;
12145;SDS011;6136;47.032;15.398;2023-02-03T07:52:44;18.23;;;11.20;;
12145;SDS011;6136;47.032;15.398;2023-02-03T07:55:12;15.50;;;9.40;;
12145;SDS011;6136;47.032;15.398;2023-02-03T07:57:40;16.13;;;9.93;;
12145;SDS011;6136;47.032;15.398;2023-02-03T08:00:10;18.60;;;10.57;;
12145;SDS011;6136;47.032;15.398;2023-02-03T08:02:41;17.60;;;10.03;;
12145;SDS011;6136;47.032;15.398;2023-02-03T08:05:10;14.33;;;9.70;;
12145;SDS011;6136;47.032;15.398;2023-02-03T08:07:38;15.73;;;9.77;;
12145;SDS011;6136;47.032;15.398;2023-02-03T08:10:08;18.57;;;10.03;;
12145;SDS011;6136;47.032;15.398;2023-02-03T08:12:37;20.00;;;9.73;;
12145;SDS011;6136;47.032;15.398;2023-02-03T08:15:06;16.73;;;10.07;;
12145;SDS011;6136;47.032;15.398;2023-02-03T08:17:35;13.20;;;8.97;;
12145;SDS011;6136;47.032;15.398;2023-02-03T08:20:07;11.73;;;8.10;;
12145;SDS011;6136;47.032;15.398;2023-02-03T08:22:36;15.70;;;8.67;;
12145;SDS011;6136;47.032;15.398;2023-02-03T08:25:04;12.37;;;8.03;;
12145;SDS011;6136;47.032;15.398;2023-02-03T08:27:33;12.93;;;8.57;;
12145;SDS011;6136;47.032;15.398;2023-02-03T08:30:02;11.27;;;7.80;;
12145;SDS011;6136;47.032;15.398;2023-02-03T08:32:31;12.57;;;7.87;;
12145;SDS011;6136;47.032;15.398;2023-02-03T08:34:59;12.80;;;8.40;;
12145;SDS011;6136;47.032;15.398;2023-02-03T08:37:29;11.20;;;7.67;;
12145;SDS011;6136;47.032;15.398;2023-02-03T08:39:58;13.53;;;9.27;;
12145;SDS011;6136;47.032;15.398;2023-02-03T08:42:27;15.30;;;8.77;;
12145;SDS011;6136;47.032;15.398;2023-02-03T08:44:55;12.33;;;8.13;;
12145;SDS011;6136;47.032;15.398;2023-02-03T08:47:23;13.30;;;8.70;;
12145;SDS011;6136;47.032;15.398;2023-02-03T08:49:51;15.37;;;8.77;;
12145;SDS011;6136;47.032;15.398;2023-02-03T08:52:20;13.27;;;8.30;;
12145;SDS011;6136;47.032;15.398;2023-02-03T08:54:50;11.73;;;8.27;;
12145;SDS011;6136;47.032;15.398;2023-02-03T08:57:18;12.07;;;8.70;;
12145;SDS011;6136;47.032;15.398;2023-02-03T08:59:46;12.97;;;8.30;;
12145;SDS011;6136;47.032;15.398;2023-02-03T09:02:15;10.00;;;7.50;;
12145;SDS011;6136;47.032;15.398;2023-02-03T09:04:44;11.33;;;7.87;;
12145;SDS011;6136;47.032;15.398;2023-02-03T09:07:14;11.57;;;8.10;;
12145;SDS011;6136;47.032;15.398;2023-02-03T09:09:43;12.87;;;7.73;;
12145;SDS011;6136;47.032;15.398;2023-02-03T09:12:12;13.63;;;8.73;;
12145;SDS011;6136;47.032;15.398;2023-02-03T09:14:41;11.93;;;8.27;;
12145;SDS011;6136;47.032;15.398;2023-02-03T09:17:09;12.17;;;8.60;;
12145;SDS011;6136;47.032;15.398;2023-02-03T09:19:37;10.43;;;8.07;;
12145;SDS011;6136;47.032;15.398;2023-02-03T09:22:05;9.20;;;7.20;;
12145;SDS011;6136;47.032;15.398;2023-02-03T09:24:34;10.93;;;7.40;;
12145;SDS011;6136;47.032;15.398;2023-02-03T09:27:02;10.93;;;7.20;;
12145;SDS011;6136;47.032;15.398;2023-02-03T09:29:31;12.63;;;8.20;;
12145;SDS011;6136;47.032;15.398;2023-02-03T09:31:59;12.33;;;7.30;;
12145;SDS011;6136;47.032;15.398;2023-02-03T09:34:32;9.37;;;7.27;;
12145;SDS011;6136;47.032;15.398;2023-02-03T09:37:00;10.57;;;7.17;;
12145;SDS011;6136;47.032;15.398;2023-02-03T09:39:29;8.77;;;6.73;;
12145;SDS011;6136;47.032;15.398;2023-02-03T09:42:05;9.90;;;6.07;;
12145;SDS011;6136;47.032;15.398;2023-02-03T09:44:47;10.13;;;7.03;;
12145;SDS011;6136;47.032;15.398;2023-02-03T09:47:26;10.33;;;5.97;;
12145;SDS011;6136;47.032;15.398;2023-02-03T09:49:59;7.70;;;6.10;;
12145;SDS011;6136;47.032;15.398;2023-02-03T09:52:30;9.27;;;6.40;;
12145;SDS011;6136;47.032;15.398;2023-02-03T09:55:02;6.80;;;5.20;;
12145;SDS011;6136;47.032;15.398;2023-02-03T09:57:34;5.27;;;4.67;;
12145;SDS011;6136;47.032;15.398;2023-02-03T10:00:12;7.67;;;5.07;;
12145;SDS011;6136;47.032;15.398;2023-02-03T10:02:48;8.53;;;5.47;;
12145;SDS011;6136;47.032;15.398;2023-02-03T10:05:24;7.53;;;5.80;;
12145;SDS011;6136;47.032;15.398;2023-02-03T10:08:04;8.03;;;5.73;;
12145;SDS011;6136;47.032;15.398;2023-02-03T10:10:39;6.73;;;5.03;;
12145;SDS011;6136;47.032;15.398;2023-02-03T10:13:20;4.70;;;3.60;;
12145;SDS011;6136;47.032;15.398;2023-02-03T10:16:00;4.67;;;3.43;;
12145;SDS011;6136;47.032;15.398;2023-02-03T10:18:39;4.10;;;3.67;;
12145;SDS011;6136;47.032;15.398;2023-02-03T10:21:12;4.43;;;3.70;;
12145;SDS011;6136;47.032;15.398;2023-02-03T10:23:45;6.03;;;4.07;;
12145;SDS011;6136;47.032;15.398;2023-02-03T10:26:17;4.67;;;4.00;;
12145;SDS011;6136;47.032;15.398;2023-02-03T10:28:50;5.03;;;3.57;;
12145;SDS011;6136;47.032;15.398;2023-02-03T10:31:24;4.47;;;3.97;;
12145;SDS011;6136;47.032;15.398;2023-02-03T10:33:57;5.43;;;4.10;;
12145;SDS011;6136;47.032;15.398;2023-02-03T10:36:32;4.83;;;4.00;;
12145;SDS011;6136;47.032;15.398;2023-02-03T10:39:13;4.27;;;3.63;;
12145;SDS011;6136;47.032;15.398;2023-02-03T10:41:49;4.20;;;3.70;;
12145;SDS011;6136;47.032;15.398;2023-02-03T10:44:17;5.60;;;3.50;;
12145;SDS011;6136;47.032;15.398;2023-02-03T10:46:47;3.97;;;3.20;;
12145;SDS011;6136;47.032;15.398;2023-02-03T10:49:15;3.67;;;2.97;;
12145;SDS011;6136;47.032;15.398;2023-02-03T10:51:45;3.80;;;3.40;;
12145;SDS011;6136;47.032;15.398;2023-02-03T10:54:25;4.73;;;3.93;;
12145;SDS011;6136;47.032;15.398;2023-02-03T10:56:57;4.82;;;3.67;;
12145;SDS011;6136;47.032;15.398;2023-02-03T10:59:31;9.70;;;4.47;;
12145;SDS011;6136;47.032;15.398;2023-02-03T11:02:07;4.28;;;3.60;;
12145;SDS011;6136;47.032;15.398;2023-02-03T11:04:36;6.57;;;3.92;;
12145;SDS011;6136;47.032;15.398;2023-02-03T11:07:05;8.85;;;5.43;;
12145;SDS011;6136;47.032;15.398;2023-02-03T11:09:49;7.30;;;4.70;;
12145;SDS011;6136;47.032;15.398;2023-02-03T11:12:18;6.93;;;5.47;;
12145;SDS011;6136;47.032;15.398;2023-02-03T11:14:47;8.00;;;4.90;;
12145;SDS011;6136;47.032;15.398;2023-02-03T11:17:19;5.23;;;4.47;;
12145;SDS011;6136;47.032;15.398;2023-02-03T11:19:49;5.77;;;4.47;;
12145;SDS011;6136;47.032;15.398;2023-02-03T11:22:26;6.27;;;5.03;;
12145;SDS011;6136;47.032;15.398;2023-02-03T11:24:56;7.77;;;4.47;;
12145;SDS011;6136;47.032;15.398;2023-02-03T11:27:27;9.77;;;5.10;;
12145;SDS011;6136;47.032;15.398;2023-02-03T11:30:05;7.30;;;4.73;;
12145;SDS011;6136;47.032;15.398;2023-02-03T11:32:40;8.33;;;5.20;;
12145;SDS011;6136;47.032;15.398;2023-02-03T11:35:13;9.27;;;5.00;;
12145;SDS011;6136;47.032;15.398;2023-02-03T11:37:44;5.90;;;4.73;;
12145;SDS011;6136;47.032;15.398;2023-02-03T11:40:24;7.03;;;5.53;;
12145;SDS011;6136;47.032;15.398;2023-02-03T11:42:58;7.60;;;6.20;;
12145;SDS011;6136;47.032;15.398;2023-02-03T11:45:35;7.37;;;5.40;;
12145;SDS011;6136;47.032;15.398;2023-02-03T11:48:15;7.13;;;5.50;;
12145;SDS011;6136;47.032;15.398;2023-02-03T11:50:54;10.03;;;5.83;;
12145;SDS011;6136;47.032;15.398;2023-02-03T11:53:30;10.83;;;5.13;;
12145;SDS011;6136;47.032;15.398;2023-02-03T11:56:25;10.23;;;5.97;;
12145;SDS011;6136;47.032;15.398;2023-02-03T12:02:08;8.00;;;6.00;;
12145;SDS011;6136;47.032;15.398;2023-02-03T12:04:56;8.13;;;5.23;;
12145;SDS011;6136;47.032;15.398;2023-02-03T12:07:44;7.43;;;5.27;;
12145;SDS011;6136;47.032;15.398;2023-02-03T12:10:27;8.07;;;5.17;;
12145;SDS011;6136;47.032;15.398;2023-02-03T12:13:10;7.33;;;5.57;;
12145;SDS011;6136;47.032;15.398;2023-02-03T12:15:57;7.20;;;5.43;;
12145;SDS011;6136;47.032;15.398;2023-02-03T12:18:39;8.20;;;6.30;;
12145;SDS011;6136;47.032;15.398;2023-02-03T12:21:24;10.43;;;6.33;;
12145;SDS011;6136;47.032;15.398;2023-02-03T12:24:03;7.33;;;5.17;;
12145;SDS011;6136;47.032;15.398;2023-02-03T12:26:41;13.67;;;6.57;;
12145;SDS011;6136;47.032;15.398;2023-02-03T12:29:18;9.17;;;5.90;;
12145;SDS011;6136;47.032;15.398;2023-02-03T12:31:51;8.47;;;6.30;;
12145;SDS011;6136;47.032;15.398;2023-02-03T12:34:27;7.73;;;5.47;;
12145;SDS011;6136;47.032;15.398;2023-02-03T12:37:03;8.57;;;5.77;;
12145;SDS011;6136;47.032;15.398;2023-02-03T12:39:36;13.10;;;5.70;;
12145;SDS011;6136;47.032;15.398;2023-02-03T12:42:12;8.30;;;5.70;;
12145;SDS011;6136;47.032;15.398;2023-02-03T12:44:46;9.97;;;5.60;;
12145;SDS011;6136;47.032;15.398;2023-02-03T12:47:21;7.43;;;5.33;;
12145;SDS011;6136;47.032;15.398;2023-02-03T12:49:55;7.43;;;4.97;;
12145;SDS011;6136;47.032;15.398;2023-02-03T12:52:29;7.63;;;5.43;;
12145;SDS011;6136;47.032;15.398;2023-02-03T12:55:13;7.17;;;5.50;;
12145;SDS011;6136;47.032;15.398;2023-02-03T12:57:48;8.70;;;5.47;;
12145;SDS011;6136;47.032;15.398;2023-02-03T13:00:26;7.93;;;5.77;;
12145;SDS011;6136;47.032;15.398;2023-02-03T13:03:17;8.60;;;5.20;;
12145;SDS011;6136;47.032;15.398;2023-02-03T13:05:53;8.27;;;5.57;;
12145;SDS011;6136;47.032;15.398;2023-02-03T13:08:29;6.87;;;5.37;;
12145;SDS011;6136;47.032;15.398;2023-02-03T13:11:05;8.97;;;5.50;;
12145;SDS011;6136;47.032;15.398;2023-02-03T13:13:41;6.70;;;4.83;;
12145;SDS011;6136;47.032;15.398;2023-02-03T13:16:14;6.63;;;4.97;;
12145;SDS011;6136;47.032;15.398;2023-02-03T13:18:48;8.10;;;5.63;;
12145;SDS011;6136;47.032;15.398;2023-02-03T13:21:20;7.13;;;4.87;;
12145;SDS011;6136;47.032;15.398;2023-02-03T13:23:50;6.93;;;5.07;;
12145;SDS011;6136;47.032;15.398;2023-02-03T13:32:17;7.13;;;5.07;;
12145;SDS011;6136;47.032;15.398;2023-02-03T13:34:59;6.50;;;5.17;;
12145;SDS011;6136;47.032;15.398;2023-02-03T13:38:01;6.50;;;4.87;;
12145;SDS011;6136;47.032;15.398;2023-02-03T13:40:44;7.13;;;4.73;;
12145;SDS011;6136;47.032;15.398;2023-02-03T13:43:24;7.17;;;5.33;;
12145;SDS011;6136;47.032;15.398;2023-02-03T13:46:04;7.27;;;4.37;;
12145;SDS011;6136;47.032;15.398;2023-02-03T13:48:39;8.23;;;4.10;;
12145;SDS011;6136;47.032;15.398;2023-02-03T13:51:13;7.20;;;5.10;;
12145;SDS011;6136;47.032;15.398;2023-02-03T13:53:44;8.40;;;5.50;;
12145;SDS011;6136;47.032;15.398;2023-02-03T13:56:19;4.93;;;4.47;;
12145;SDS011;6136;47.032;15.398;2023-02-03T13:58:59;6.10;;;4.30;;
12145;SDS011;6136;47.032;15.398;2023-02-03T14:01:34;7.87;;;4.60;;
12145;SDS011;6136;47.032;15.398;2023-02-03T14:04:04;5.80;;;4.33;;
12145;SDS011;6136;47.032;15.398;2023-02-03T14:09:36;8.63;;;4.33;;
12145;SDS011;6136;47.032;15.398;2023-02-03T14:12:20;6.17;;;4.23;;
12145;SDS011;6136;47.032;15.398;2023-02-03T14:14:59;4.13;;;3.73;;
12145;SDS011;6136;47.032;15.398;2023-02-03T14:21:10;5.63;;;4.03;;
12145;SDS011;6136;47.032;15.398;2023-02-03T14:23:43;4.97;;;3.80;;
12145;SDS011;6136;47.032;15.398;2023-02-03T14:26:22;3.17;;;2.30;;
12145;SDS011;6136;47.032;15.398;2023-02-03T14:28:56;2.70;;;2.30;;
12145;SDS011;6136;47.032;15.398;2023-02-03T14:31:25;1.57;;;1.47;;
12145;SDS011;6136;47.032;15.398;2023-02-03T14:33:55;1.53;;;1.40;;
12145;SDS011;6136;47.032;15.398;2023-02-03T14:36:38;3.40;;;0.90;;
12145;SDS011;6136;47.032;15.398;2023-02-03T14:42:28;3.33;;;2.97;;
12145;SDS011;6136;47.032;15.398;2023-02-03T14:45:47;4.57;;;3.20;;
12145;SDS011;6136;47.032;15.398;2023-02-03T14:48:30;4.40;;;1.90;;
12145;SDS011;6136;47.032;15.398;2023-02-03T14:51:14;1.60;;;1.40;;
12145;SDS011;6136;47.032;15.398;2023-02-03T14:53:59;1.47;;;1.37;;
12145;SDS011;6136;47.032;15.398;2023-02-03T14:56:41;1.37;;;1.27;;
12145;SDS011;6136;47.032;15.398;2023-02-03T14:59:35;3.37;;;2.00;;
12145;SDS011;6136;47.032;15.398;2023-02-03T15:02:12;1.77;;;1.50;;
12145;SDS011;6136;47.032;15.398;2023-02-03T15:04:42;0.80;;;0.80;;
12145;SDS011;6136;47.032;15.398;2023-02-03T15:10:08;1.30;;;1.20;;
12145;SDS011;6136;47.032;15.398;2023-02-03T15:12:44;1.20;;;1.20;;
12145;SDS011;6136;47.032;15.398;2023-02-03T15:15:18;2.30;;;2.10;;
12145;SDS011;6136;47.032;15.398;2023-02-03T15:17:48;3.67;;;2.17;;
12145;SDS011;6136;47.032;15.398;2023-02-03T15:20:31;2.70;;;2.50;;
12145;SDS011;6136;47.032;15.398;2023-02-03T15:23:15;3.53;;;2.73;;
12145;SDS011;6136;47.032;15.398;2023-02-03T15:25:53;3.50;;;3.13;;
12145;SDS011;6136;47.032;15.398;2023-02-03T15:28:23;4.93;;;3.00;;
12145;SDS011;6136;47.032;15.398;2023-02-03T15:30:54;5.23;;;3.30;;
12145;SDS011;6136;47.032;15.398;2023-02-03T15:33:28;4.13;;;3.20;;